sensor_id;sensor_type;location;lat;lon;timestamp;temperature;humidity
17728;DHT22;8984;49.268;12.302;2023-04-01T00:00:26;10.00;99.90
17728;DHT22;8984;49.268;12.302;2023-04-01T00:02:58;10.10;99.90
17728;DHT22;8984;49.268;12.302;2023-04-01T00:05:26;10.00;99.90
17728;DHT22;8984;49.268;12.302;2023-04-01T00:08:00;9.90;99.90
17728;DHT22;8984;49.268;12.302;2023-04-01T00:10:29;9.90;99.90
17728;DHT22;8984;49.268;12.302;2023-04-01T00:12:58;9.90;99.90
17728;DHT22;8984;49.268;12.302;2023-04-01T00:15:34;10.00;99.90
17728;DHT22;8984;49.268;12.302;2023-04-01T00:18:03;9.90;99.90
17728;DHT22;8984;49.268;12.302;2023-04-01T00:20:35;10.00;99.90
17728;DHT22;8984;49.268;12.302;2023-04-01T00:23:14;9.90;99.90
17728;DHT22;8984;49.268;12.302;2023-04-01T00:25:50;9.90;99.90
17728;DHT22;8984;49.268;12.302;2023-04-01T00:28:19;9.90;99.90
17728;DHT22;8984;49.268;12.302;2023-04-01T00:30:51;9.90;99.90
17728;DHT22;8984;49.268;12.302;2023-04-01T00:33:21;9.90;99.90
17728;DHT22;8984;49.268;12.302;2023-04-01T00:36:05;9.80;99.90
17728;DHT22;8984;49.268;12.302;2023-04-01T00:38:53;9.80;99.90
17728;DHT22;8984;49.268;12.302;2023-04-01T00:41:23;9.80;99.90
17728;DHT22;8984;49.268;12.302;2023-04-01T00:46:39;9.90;99.90
17728;DHT22;8984;49.268;12.302;2023-04-01T00:49:13;9.90;99.90
17728;DHT22;8984;49.268;12.302;2023-04-01T00:51:45;9.90;99.90
17728;DHT22;8984;49.268;12.302;2023-04-01T00:54:25;9.90;99.90
17728;DHT22;8984;49.268;12.302;2023-04-01T00:57:28;10.00;99.90
17728;DHT22;8984;49.268;12.302;2023-04-01T01:00:08;9.90;99.90
17728;DHT22;8984;49.268;12.302;2023-04-01T01:02:45;9.90;99.90
17728;DHT22;8984;49.268;12.302;2023-04-01T01:05:16;9.90;99.90
17728;DHT22;8984;49.268;12.302;2023-04-01T01:07:49;9.90;99.90
17728;DHT22;8984;49.268;12.302;2023-04-01T01:10:29;9.90;99.90
17728;DHT22;8984;49.268;12.302;2023-04-01T01:13:08;10.00;99.90
17728;DHT22;8984;49.268;12.302;2023-04-01T01:15:45;10.10;99.90
17728;DHT22;8984;49.268;12.302;2023-04-01T01:18:21;10.10;99.90
17728;DHT22;8984;49.268;12.302;2023-04-01T01:21:37;10.00;99.90
17728;DHT22;8984;49.268;12.302;2023-04-01T01:24:39;10.10;99.90
17728;DHT22;8984;49.268;12.302;2023-04-01T01:27:13;10.10;99.90
17728;DHT22;8984;49.268;12.302;2023-04-01T01:36:02;10.10;99.90
17728;DHT22;8984;49.268;12.302;2023-04-01T01:38:34;10.10;99.90
17728;DHT22;8984;49.268;12.302;2023-04-01T01:41:09;10.10;99.90
17728;DHT22;8984;49.268;12.302;2023-04-01T01:43:40;10.10;99.90
17728;DHT22;8984;49.268;12.302;2023-04-01T01:46:27;10.20;99.90
17728;DHT22;8984;49.268;12.302;2023-04-01T01:48:58;10.20;99.90
17728;DHT22;8984;49.268;12.302;2023-04-01T01:51:38;10.10;99.90
17728;DHT22;8984;49.268;12.302;2023-04-01T01:54:19;10.10;99.90
17728;DHT22;8984;49.268;12.302;2023-04-01T02:00:17;10.20;99.90
17728;DHT22;8984;49.268;12.302;2023-04-01T02:02:46;10.10;99.90
17728;DHT22;8984;49.268;12.302;2023-04-01T02:05:19;10.20;99.90
17728;DHT22;8984;49.268;12.302;2023-04-01T02:07:59;10.10;99.90
17728;DHT22;8984;49.268;12.302;2023-04-01T02:10:34;10.10;99.90
17728;DHT22;8984;49.268;12.302;2023-04-01T02:13:08;10.10;99.90
17728;DHT22;8984;49.268;12.302;2023-04-01T02:15:41;10.10;99.90
17728;DHT22;8984;49.268;12.302;2023-04-01T02:18:12;10.00;99.90
17728;DHT22;8984;49.268;12.302;2023-04-01T02:20:41;10.00;99.90
17728;DHT22;8984;49.268;12.302;2023-04-01T02:23:14;10.10;99.90
17728;DHT22;8984;49.268;12.302;2023-04-01T02:25:48;10.00;99.90
17728;DHT22;8984;49.268;12.302;2023-04-01T02:28:18;10.10;99.90
17728;DHT22;8984;49.268;12.302;2023-04-01T02:30:48;10.00;99.90
17728;DHT22;8984;49.268;12.302;2023-04-01T02:33:19;10.10;99.90
17728;DHT22;8984;49.268;12.302;2023-04-01T02:35:54;10.20;99.90
17728;DHT22;8984;49.268;12.302;2023-04-01T02:38:24;10.10;99.90
17728;DHT22;8984;49.268;12.302;2023-04-01T02:40:58;10.00;99.90
17728;DHT22;8984;49.268;12.302;2023-04-01T02:43:28;10.20;99.90
17728;DHT22;8984;49.268;12.302;2023-04-01T02:45:57;10.10;99.90
17728;DHT22;8984;49.268;12.302;2023-04-01T02:48:42;10.20;99.90
17728;DHT22;8984;49.268;12.302;2023-04-01T02:51:10;10.20;99.90
17728;DHT22;8984;49.268;12.302;2023-04-01T02:53:41;10.20;99.90
17728;DHT22;8984;49.268;12.302;2023-04-01T02:56:10;10.20;99.90
17728;DHT22;8984;49.268;12.302;2023-04-01T02:58:47;10.20;99.90
17728;DHT22;8984;49.268;12.302;2023-04-01T03:01:24;10.20;99.90
17728;DHT22;8984;49.268;12.302;2023-04-01T03:04:02;10.20;99.90
17728;DHT22;8984;49.268;12.302;2023-04-01T03:06:36;10.20;99.90
17728;DHT22;8984;49.268;12.302;2023-04-01T03:09:16;10.10;99.90
17728;DHT22;8984;49.268;12.302;2023-04-01T03:11:44;10.10;99.90
17728;DHT22;8984;49.268;12.302;2023-04-01T03:14:15;10.10;99.90
17728;DHT22;8984;49.268;12.302;2023-04-01T03:16:42;10.10;99.90
17728;DHT22;8984;49.268;12.302;2023-04-01T03:19:17;10.30;99.90
17728;DHT22;8984;49.268;12.302;2023-04-01T03:22:02;10.20;99.90
17728;DHT22;8984;49.268;12.302;2023-04-01T03:24:49;10.20;99.90
17728;DHT22;8984;49.268;12.302;2023-04-01T03:27:18;10.20;99.90
17728;DHT22;8984;49.268;12.302;2023-04-01T03:29:48;10.20;99.90
17728;DHT22;8984;49.268;12.302;2023-04-01T03:32:27;10.20;99.90
17728;DHT22;8984;49.268;12.302;2023-04-01T03:34:56;10.10;99.90
17728;DHT22;8984;49.268;12.302;2023-04-01T03:37:25;10.20;99.90
17728;DHT22;8984;49.268;12.302;2023-04-01T03:40:11;10.10;99.90
17728;DHT22;8984;49.268;12.302;2023-04-01T03:42:43;10.10;99.90
17728;DHT22;8984;49.268;12.302;2023-04-01T03:45:23;10.10;99.90
17728;DHT22;8984;49.268;12.302;2023-04-01T03:47:52;10.10;99.90
17728;DHT22;8984;49.268;12.302;2023-04-01T03:50:28;9.90;99.90
17728;DHT22;8984;49.268;12.302;2023-04-01T03:52:57;10.00;99.90
17728;DHT22;8984;49.268;12.302;2023-04-01T03:55:36;10.10;99.90
17728;DHT22;8984;49.268;12.302;2023-04-01T03:58:09;10.10;99.90
17728;DHT22;8984;49.268;12.302;2023-04-01T04:00:43;10.10;99.90
17728;DHT22;8984;49.268;12.302;2023-04-01T04:03:14;10.20;99.90
17728;DHT22;8984;49.268;12.302;2023-04-01T04:05:47;10.10;99.90
17728;DHT22;8984;49.268;12.302;2023-04-01T04:08:22;10.10;99.90
17728;DHT22;8984;49.268;12.302;2023-04-01T04:10:56;10.10;99.90
17728;DHT22;8984;49.268;12.302;2023-04-01T04:13:33;10.10;99.90
17728;DHT22;8984;49.268;12.302;2023-04-01T04:16:14;10.10;99.90
17728;DHT22;8984;49.268;12.302;2023-04-01T04:18:52;10.10;99.90
17728;DHT22;8984;49.268;12.302;2023-04-01T04:21:23;10.10;99.90
17728;DHT22;8984;49.268;12.302;2023-04-01T04:24:10;10.10;99.90
17728;DHT22;8984;49.268;12.302;2023-04-01T04:26:43;10.10;99.90
17728;DHT22;8984;49.268;12.302;2023-04-01T04:29:11;10.20;99.90
17728;DHT22;8984;49.268;12.302;2023-04-01T04:31:39;10.10;99.90
17728;DHT22;8984;49.268;12.302;2023-04-01T04:34:08;10.10;99.90
17728;DHT22;8984;49.268;12.302;2023-04-01T04:36:36;10.10;99.90
17728;DHT22;8984;49.268;12.302;2023-04-01T04:39:05;10.00;99.90
17728;DHT22;8984;49.268;12.302;2023-04-01T04:41:37;10.10;99.90
17728;DHT22;8984;49.268;12.302;2023-04-01T04:44:10;9.90;99.90
17728;DHT22;8984;49.268;12.302;2023-04-01T04:46:39;10.00;99.90
17728;DHT22;8984;49.268;12.302;2023-04-01T04:49:07;10.00;99.90
17728;DHT22;8984;49.268;12.302;2023-04-01T04:51:41;10.00;99.90
17728;DHT22;8984;49.268;12.302;2023-04-01T04:54:19;10.00;99.90
17728;DHT22;8984;49.268;12.302;2023-04-01T04:56:51;10.00;99.90
17728;DHT22;8984;49.268;12.302;2023-04-01T04:59:27;10.00;99.90
17728;DHT22;8984;49.268;12.302;2023-04-01T05:01:54;10.00;99.90
17728;DHT22;8984;49.268;12.302;2023-04-01T05:04:34;10.00;99.90
17728;DHT22;8984;49.268;12.302;2023-04-01T05:07:08;10.00;99.90
17728;DHT22;8984;49.268;12.302;2023-04-01T05:09:36;10.10;99.90
17728;DHT22;8984;49.268;12.302;2023-04-01T05:12:14;10.10;99.90
17728;DHT22;8984;49.268;12.302;2023-04-01T05:14:47;10.10;99.90
17728;DHT22;8984;49.268;12.302;2023-04-01T05:17:20;10.10;99.90
17728;DHT22;8984;49.268;12.302;2023-04-01T05:19:49;10.10;99.90
17728;DHT22;8984;49.268;12.302;2023-04-01T05:22:17;10.10;99.90
17728;DHT22;8984;49.268;12.302;2023-04-01T05:24:48;10.10;99.90
17728;DHT22;8984;49.268;12.302;2023-04-01T05:27:27;10.10;99.90
17728;DHT22;8984;49.268;12.302;2023-04-01T05:30:01;9.90;99.90
17728;DHT22;8984;49.268;12.302;2023-04-01T05:32:36;10.10;99.90
17728;DHT22;8984;49.268;12.302;2023-04-01T05:35:05;10.00;99.90
17728;DHT22;8984;49.268;12.302;2023-04-01T05:37:49;10.00;99.90
17728;DHT22;8984;49.268;12.302;2023-04-01T05:40:18;10.00;99.90
17728;DHT22;8984;49.268;12.302;2023-04-01T05:42:55;10.00;99.90
17728;DHT22;8984;49.268;12.302;2023-04-01T05:45:25;10.10;99.90
17728;DHT22;8984;49.268;12.302;2023-04-01T05:47:53;10.10;99.90
17728;DHT22;8984;49.268;12.302;2023-04-01T05:50:28;10.10;99.90
17728;DHT22;8984;49.268;12.302;2023-04-01T05:53:03;10.20;99.90
17728;DHT22;8984;49.268;12.302;2023-04-01T05:55:31;10.10;99.90
17728;DHT22;8984;49.268;12.302;2023-04-01T05:57:59;10.10;99.90
17728;DHT22;8984;49.268;12.302;2023-04-01T06:00:31;10.10;99.90
17728;DHT22;8984;49.268;12.302;2023-04-01T06:03:00;10.20;99.90
17728;DHT22;8984;49.268;12.302;2023-04-01T06:05:39;10.30;99.90
17728;DHT22;8984;49.268;12.302;2023-04-01T06:08:12;10.40;99.90
17728;DHT22;8984;49.268;12.302;2023-04-01T06:10:51;10.50;99.90
17728;DHT22;8984;49.268;12.302;2023-04-01T06:13:37;10.50;99.90
17728;DHT22;8984;49.268;12.302;2023-04-01T06:16:18;10.50;99.90
17728;DHT22;8984;49.268;12.302;2023-04-01T06:19:09;10.50;99.90
17728;DHT22;8984;49.268;12.302;2023-04-01T06:24:57;10.60;99.90
17728;DHT22;8984;49.268;12.302;2023-04-01T06:27:42;10.70;99.90
17728;DHT22;8984;49.268;12.302;2023-04-01T06:30:30;10.80;99.90
17728;DHT22;8984;49.268;12.302;2023-04-01T06:33:23;10.70;99.90
17728;DHT22;8984;49.268;12.302;2023-04-01T06:36:22;10.70;99.90
17728;DHT22;8984;49.268;12.302;2023-04-01T06:45:25;10.70;99.90
17728;DHT22;8984;49.268;12.302;2023-04-01T06:48:10;10.80;99.90
17728;DHT22;8984;49.268;12.302;2023-04-01T06:51:02;10.90;99.90
17728;DHT22;8984;49.268;12.302;2023-04-01T06:53:39;10.90;99.90
17728;DHT22;8984;49.268;12.302;2023-04-01T06:56:09;10.80;99.90
17728;DHT22;8984;49.268;12.302;2023-04-01T06:58:41;10.80;99.90
17728;DHT22;8984;49.268;12.302;2023-04-01T07:01:22;10.90;99.90
17728;DHT22;8984;49.268;12.302;2023-04-01T07:03:53;10.80;99.90
17728;DHT22;8984;49.268;12.302;2023-04-01T07:06:47;10.80;99.90
17728;DHT22;8984;49.268;12.302;2023-04-01T07:09:25;10.90;99.90
17728;DHT22;8984;49.268;12.302;2023-04-01T07:11:59;11.00;99.90
17728;DHT22;8984;49.268;12.302;2023-04-01T07:14:36;11.00;99.90
17728;DHT22;8984;49.268;12.302;2023-04-01T07:17:11;11.30;99.90
17728;DHT22;8984;49.268;12.302;2023-04-01T07:19:47;11.40;99.90
17728;DHT22;8984;49.268;12.302;2023-04-01T07:22:29;11.30;99.90
17728;DHT22;8984;49.268;12.302;2023-04-01T07:25:13;11.40;99.90
17728;DHT22;8984;49.268;12.302;2023-04-01T07:27:49;11.30;99.90
17728;DHT22;8984;49.268;12.302;2023-04-01T07:30:24;11.40;99.90
17728;DHT22;8984;49.268;12.302;2023-04-01T07:33:05;11.30;99.90
17728;DHT22;8984;49.268;12.302;2023-04-01T07:35:46;11.30;99.90
17728;DHT22;8984;49.268;12.302;2023-04-01T07:38:30;11.30;99.90
17728;DHT22;8984;49.268;12.302;2023-04-01T07:41:06;11.40;99.90
17728;DHT22;8984;49.268;12.302;2023-04-01T07:43:54;11.30;99.90
17728;DHT22;8984;49.268;12.302;2023-04-01T07:46:54;11.40;99.90
17728;DHT22;8984;49.268;12.302;2023-04-01T07:49:40;11.40;99.90
17728;DHT22;8984;49.268;12.302;2023-04-01T07:52:19;11.50;99.90
17728;DHT22;8984;49.268;12.302;2023-04-01T07:55:06;11.40;99.90
17728;DHT22;8984;49.268;12.302;2023-04-01T07:57:40;11.30;99.90
17728;DHT22;8984;49.268;12.302;2023-04-01T08:00:19;11.40;99.90
17728;DHT22;8984;49.268;12.302;2023-04-01T08:02:59;11.40;99.90
17728;DHT22;8984;49.268;12.302;2023-04-01T08:05:34;11.50;99.90
17728;DHT22;8984;49.268;12.302;2023-04-01T08:08:22;11.30;99.90
17728;DHT22;8984;49.268;12.302;2023-04-01T08:10:59;11.50;99.90
17728;DHT22;8984;49.268;12.302;2023-04-01T08:13:37;11.70;99.90
17728;DHT22;8984;49.268;12.302;2023-04-01T08:16:13;11.90;99.90
17728;DHT22;8984;49.268;12.302;2023-04-01T08:18:54;12.10;99.90
17728;DHT22;8984;49.268;12.302;2023-04-01T08:21:27;12.00;99.90
17728;DHT22;8984;49.268;12.302;2023-04-01T08:24:11;12.00;99.90
17728;DHT22;8984;49.268;12.302;2023-04-01T08:27:00;12.20;99.90
17728;DHT22;8984;49.268;12.302;2023-04-01T08:29:41;12.30;99.90
17728;DHT22;8984;49.268;12.302;2023-04-01T08:32:12;12.30;99.90
17728;DHT22;8984;49.268;12.302;2023-04-01T08:34:45;12.20;99.90
17728;DHT22;8984;49.268;12.302;2023-04-01T08:37:30;12.40;99.90
17728;DHT22;8984;49.268;12.302;2023-04-01T08:43:12;12.50;99.90
17728;DHT22;8984;49.268;12.302;2023-04-01T08:45:56;12.60;99.90
17728;DHT22;8984;49.268;12.302;2023-04-01T08:49:00;12.30;99.90
17728;DHT22;8984;49.268;12.302;2023-04-01T08:54:46;12.60;99.90
17728;DHT22;8984;49.268;12.302;2023-04-01T08:57:24;12.70;99.90
17728;DHT22;8984;49.268;12.302;2023-04-01T09:00:10;12.70;99.90
17728;DHT22;8984;49.268;12.302;2023-04-01T09:03:13;12.90;99.90
17728;DHT22;8984;49.268;12.302;2023-04-01T09:05:59;13.00;99.90
17728;DHT22;8984;49.268;12.302;2023-04-01T09:08:43;13.00;99.90
17728;DHT22;8984;49.268;12.302;2023-04-01T09:11:38;12.80;99.90
17728;DHT22;8984;49.268;12.302;2023-04-01T09:14:48;12.80;99.90
17728;DHT22;8984;49.268;12.302;2023-04-01T09:18:24;12.80;99.90
17728;DHT22;8984;49.268;12.302;2023-04-01T09:21:22;12.90;99.90
17728;DHT22;8984;49.268;12.302;2023-04-01T09:27:05;13.00;99.90
17728;DHT22;8984;49.268;12.302;2023-04-01T09:36:23;13.30;99.90
17728;DHT22;8984;49.268;12.302;2023-04-01T09:39:18;13.50;99.90
17728;DHT22;8984;49.268;12.302;2023-04-01T09:42:03;13.70;99.90
17728;DHT22;8984;49.268;12.302;2023-04-01T09:44:36;13.80;99.90
17728;DHT22;8984;49.268;12.302;2023-04-01T09:47:27;13.90;99.90
17728;DHT22;8984;49.268;12.302;2023-04-01T09:53:11;13.90;99.90
17728;DHT22;8984;49.268;12.302;2023-04-01T09:56:12;13.70;99.90
17728;DHT22;8984;49.268;12.302;2023-04-01T10:08:36;13.50;99.90
17728;DHT22;8984;49.268;12.302;2023-04-01T10:11:41;13.60;99.90
17728;DHT22;8984;49.268;12.302;2023-04-01T10:14:40;13.50;99.90
17728;DHT22;8984;49.268;12.302;2023-04-01T10:17:51;13.40;99.90
17728;DHT22;8984;49.268;12.302;2023-04-01T10:23:51;13.40;99.90
17728;DHT22;8984;49.268;12.302;2023-04-01T10:30:05;13.60;99.90
17728;DHT22;8984;49.268;12.302;2023-04-01T10:36:34;13.40;99.90
17728;DHT22;8984;49.268;12.302;2023-04-01T10:46:00;13.10;99.90
17728;DHT22;8984;49.268;12.302;2023-04-01T10:58:43;13.00;99.90
17728;DHT22;8984;49.268;12.302;2023-04-01T11:01:27;12.90;99.90
17728;DHT22;8984;49.268;12.302;2023-04-01T11:08:01;13.00;99.90
17728;DHT22;8984;49.268;12.302;2023-04-01T11:17:28;13.30;99.90
17728;DHT22;8984;49.268;12.302;2023-04-01T11:23:27;13.20;99.90
17728;DHT22;8984;49.268;12.302;2023-04-01T11:26:23;13.20;99.90
17728;DHT22;8984;49.268;12.302;2023-04-01T11:29:09;13.10;99.90
17728;DHT22;8984;49.268;12.302;2023-04-01T11:31:48;13.20;99.90
17728;DHT22;8984;49.268;12.302;2023-04-01T11:34:49;13.30;99.90
17728;DHT22;8984;49.268;12.302;2023-04-01T11:37:34;13.30;99.90
17728;DHT22;8984;49.268;12.302;2023-04-01T11:40:16;13.40;99.90
17728;DHT22;8984;49.268;12.302;2023-04-01T11:42:54;13.20;99.90
17728;DHT22;8984;49.268;12.302;2023-04-01T11:45:43;13.30;99.90
17728;DHT22;8984;49.268;12.302;2023-04-01T11:48:31;13.20;99.90
17728;DHT22;8984;49.268;12.302;2023-04-01T11:51:24;13.20;99.90
17728;DHT22;8984;49.268;12.302;2023-04-01T11:53:59;13.00;99.90
17728;DHT22;8984;49.268;12.302;2023-04-01T11:56:45;12.90;99.90
17728;DHT22;8984;49.268;12.302;2023-04-01T11:59:47;12.90;99.90
17728;DHT22;8984;49.268;12.302;2023-04-01T12:02:32;12.80;99.90
17728;DHT22;8984;49.268;12.302;2023-04-01T12:05:41;12.80;99.90
17728;DHT22;8984;49.268;12.302;2023-04-01T12:08:21;12.60;99.90
17728;DHT22;8984;49.268;12.302;2023-04-01T12:11:03;12.70;99.90
17728;DHT22;8984;49.268;12.302;2023-04-01T12:13:40;12.60;99.90
17728;DHT22;8984;49.268;12.302;2023-04-01T12:16:39;12.50;99.90
17728;DHT22;8984;49.268;12.302;2023-04-01T12:19:19;12.30;99.90
17728;DHT22;8984;49.268;12.302;2023-04-01T12:22:02;12.40;99.90
17728;DHT22;8984;49.268;12.302;2023-04-01T12:24:55;12.50;99.90
17728;DHT22;8984;49.268;12.302;2023-04-01T12:27:53;12.30;99.90
17728;DHT22;8984;49.268;12.302;2023-04-01T12:30:54;12.40;99.90
17728;DHT22;8984;49.268;12.302;2023-04-01T12:33:40;12.40;99.90
17728;DHT22;8984;49.268;12.302;2023-04-01T12:36:42;12.30;99.90
17728;DHT22;8984;49.268;12.302;2023-04-01T12:42:14;12.30;99.90
17728;DHT22;8984;49.268;12.302;2023-04-01T12:45:11;12.50;99.90
17728;DHT22;8984;49.268;12.302;2023-04-01T12:48:10;12.40;99.90
17728;DHT22;8984;49.268;12.302;2023-04-01T12:51:21;12.50;99.90
17728;DHT22;8984;49.268;12.302;2023-04-01T12:54:17;12.70;99.90
17728;DHT22;8984;49.268;12.302;2023-04-01T12:57:02;12.40;99.90
17728;DHT22;8984;49.268;12.302;2023-04-01T12:59:57;12.20;99.90
17728;DHT22;8984;49.268;12.302;2023-04-01T13:02:39;12.20;99.90
17728;DHT22;8984;49.268;12.302;2023-04-01T13:05:33;12.10;99.90
17728;DHT22;8984;49.268;12.302;2023-04-01T13:08:39;12.10;99.90
17728;DHT22;8984;49.268;12.302;2023-04-01T13:11:23;12.10;99.90
17728;DHT22;8984;49.268;12.302;2023-04-01T13:14:24;12.10;99.90
17728;DHT22;8984;49.268;12.302;2023-04-01T13:16:58;12.00;99.90
17728;DHT22;8984;49.268;12.302;2023-04-01T13:19:34;12.00;99.90
17728;DHT22;8984;49.268;12.302;2023-04-01T13:22:13;11.90;99.90
17728;DHT22;8984;49.268;12.302;2023-04-01T13:24:54;11.80;99.90
17728;DHT22;8984;49.268;12.302;2023-04-01T13:27:34;11.80;99.90
17728;DHT22;8984;49.268;12.302;2023-04-01T13:30:22;12.00;99.90
17728;DHT22;8984;49.268;12.302;2023-04-01T13:33:01;12.20;99.90
17728;DHT22;8984;49.268;12.302;2023-04-01T13:35:46;12.20;99.90
17728;DHT22;8984;49.268;12.302;2023-04-01T13:38:47;12.30;99.90
17728;DHT22;8984;49.268;12.302;2023-04-01T13:41:30;12.00;99.90
17728;DHT22;8984;49.268;12.302;2023-04-01T13:44:46;12.10;99.90
17728;DHT22;8984;49.268;12.302;2023-04-01T13:53:41;12.00;99.90
17728;DHT22;8984;49.268;12.302;2023-04-01T13:56:26;12.10;99.90
17728;DHT22;8984;49.268;12.302;2023-04-01T13:59:03;11.90;99.90
17728;DHT22;8984;49.268;12.302;2023-04-01T14:04:51;11.90;99.90
17728;DHT22;8984;49.268;12.302;2023-04-01T14:07:40;12.00;99.90
17728;DHT22;8984;49.268;12.302;2023-04-01T14:10:42;12.00;99.90
17728;DHT22;8984;49.268;12.302;2023-04-01T14:13:17;12.00;99.90
17728;DHT22;8984;49.268;12.302;2023-04-01T14:16:22;11.80;99.90
17728;DHT22;8984;49.268;12.302;2023-04-01T14:19:20;11.90;99.90
17728;DHT22;8984;49.268;12.302;2023-04-01T14:22:00;11.90;99.90
17728;DHT22;8984;49.268;12.302;2023-04-01T14:24:50;11.70;99.90
17728;DHT22;8984;49.268;12.302;2023-04-01T14:27:55;11.60;99.90
17728;DHT22;8984;49.268;12.302;2023-04-01T14:30:51;11.60;99.90
17728;DHT22;8984;49.268;12.302;2023-04-01T14:33:37;11.70;99.90
17728;DHT22;8984;49.268;12.302;2023-04-01T14:36:37;11.80;99.90
17728;DHT22;8984;49.268;12.302;2023-04-01T14:39:36;11.90;99.90
17728;DHT22;8984;49.268;12.302;2023-04-01T14:45:30;11.80;99.90
17728;DHT22;8984;49.268;12.302;2023-04-01T14:48:13;11.80;99.90
17728;DHT22;8984;49.268;12.302;2023-04-01T14:50:45;11.70;99.90
17728;DHT22;8984;49.268;12.302;2023-04-01T14:53:26;11.70;99.90
17728;DHT22;8984;49.268;12.302;2023-04-01T14:55:55;11.80;99.90
17728;DHT22;8984;49.268;12.302;2023-04-01T14:58:23;11.70;99.90
17728;DHT22;8984;49.268;12.302;2023-04-01T15:01:16;11.80;99.90
17728;DHT22;8984;49.268;12.302;2023-04-01T15:03:53;11.90;99.90
17728;DHT22;8984;49.268;12.302;2023-04-01T15:06:50;11.90;99.90
17728;DHT22;8984;49.268;12.302;2023-04-01T15:09:26;11.80;99.90
17728;DHT22;8984;49.268;12.302;2023-04-01T15:12:05;11.90;99.90
17728;DHT22;8984;49.268;12.302;2023-04-01T15:14:43;11.90;99.90
17728;DHT22;8984;49.268;12.302;2023-04-01T15:17:23;12.00;99.90
17728;DHT22;8984;49.268;12.302;2023-04-01T15:20:10;11.90;99.90
17728;DHT22;8984;49.268;12.302;2023-04-01T15:22:58;11.90;99.90
17728;DHT22;8984;49.268;12.302;2023-04-01T15:25:41;11.90;99.90
17728;DHT22;8984;49.268;12.302;2023-04-01T15:28:19;11.90;99.90
17728;DHT22;8984;49.268;12.302;2023-04-01T15:30:55;12.00;99.90
17728;DHT22;8984;49.268;12.302;2023-04-01T15:33:48;12.00;99.90
17728;DHT22;8984;49.268;12.302;2023-04-01T15:36:29;12.10;99.90
17728;DHT22;8984;49.268;12.302;2023-04-01T15:39:09;12.10;99.90
17728;DHT22;8984;49.268;12.302;2023-04-01T15:41:46;12.10;99.90
17728;DHT22;8984;49.268;12.302;2023-04-01T15:44:43;12.10;99.90
17728;DHT22;8984;49.268;12.302;2023-04-01T15:47:31;12.00;99.90
17728;DHT22;8984;49.268;12.302;2023-04-01T15:52:52;12.00;99.90
17728;DHT22;8984;49.268;12.302;2023-04-01T15:55:25;11.90;99.90
17728;DHT22;8984;49.268;12.302;2023-04-01T15:58:11;12.00;99.90
17728;DHT22;8984;49.268;12.302;2023-04-01T16:00:46;12.10;99.90
17728;DHT22;8984;49.268;12.302;2023-04-01T16:03:30;12.00;99.90
17728;DHT22;8984;49.268;12.302;2023-04-01T16:06:14;11.90;99.90
17728;DHT22;8984;49.268;12.302;2023-04-01T16:11:51;11.90;99.90
17728;DHT22;8984;49.268;12.302;2023-04-01T16:14:29;11.80;99.90
17728;DHT22;8984;49.268;12.302;2023-04-01T16:17:10;11.70;99.90
17728;DHT22;8984;49.268;12.302;2023-04-01T16:19:51;11.70;99.90
17728;DHT22;8984;49.268;12.302;2023-04-01T16:22:23;11.70;99.90
17728;DHT22;8984;49.268;12.302;2023-04-01T16:24:55;11.60;99.90
17728;DHT22;8984;49.268;12.302;2023-04-01T16:27:31;11.40;99.90
17728;DHT22;8984;49.268;12.302;2023-04-01T16:30:25;11.50;99.90
17728;DHT22;8984;49.268;12.302;2023-04-01T16:32:57;11.50;99.90
17728;DHT22;8984;49.268;12.302;2023-04-01T16:35:42;11.50;99.90
17728;DHT22;8984;49.268;12.302;2023-04-01T16:38:31;11.40;99.90
17728;DHT22;8984;49.268;12.302;2023-04-01T16:41:14;11.50;99.90
17728;DHT22;8984;49.268;12.302;2023-04-01T16:44:10;11.50;99.90
17728;DHT22;8984;49.268;12.302;2023-04-01T16:46:59;11.40;99.90
17728;DHT22;8984;49.268;12.302;2023-04-01T16:49:39;11.50;99.90
17728;DHT22;8984;49.268;12.302;2023-04-01T16:52:29;11.50;99.90
17728;DHT22;8984;49.268;12.302;2023-04-01T16:55:02;11.40;99.90
17728;DHT22;8984;49.268;12.302;2023-04-01T16:57:51;11.40;99.90
17728;DHT22;8984;49.268;12.302;2023-04-01T17:00:39;11.40;99.90
17728;DHT22;8984;49.268;12.302;2023-04-01T17:03:17;11.50;99.90
17728;DHT22;8984;49.268;12.302;2023-04-01T17:06:10;11.50;99.90
17728;DHT22;8984;49.268;12.302;2023-04-01T17:09:25;11.50;99.90
17728;DHT22;8984;49.268;12.302;2023-04-01T17:12:20;11.50;99.90
17728;DHT22;8984;49.268;12.302;2023-04-01T17:15:08;11.30;99.90
17728;DHT22;8984;49.268;12.302;2023-04-01T17:17:48;11.40;99.90
17728;DHT22;8984;49.268;12.302;2023-04-01T17:20:53;11.40;99.90
17728;DHT22;8984;49.268;12.302;2023-04-01T17:23:30;11.50;99.90
17728;DHT22;8984;49.268;12.302;2023-04-01T17:26:08;11.40;99.90
17728;DHT22;8984;49.268;12.302;2023-04-01T17:31:54;11.50;99.90
17728;DHT22;8984;49.268;12.302;2023-04-01T17:34:42;11.50;99.90
17728;DHT22;8984;49.268;12.302;2023-04-01T17:37:26;11.50;99.90
17728;DHT22;8984;49.268;12.302;2023-04-01T17:40:08;11.50;99.90
17728;DHT22;8984;49.268;12.302;2023-04-01T17:42:45;11.40;99.90
17728;DHT22;8984;49.268;12.302;2023-04-01T17:45:20;11.40;99.90
17728;DHT22;8984;49.268;12.302;2023-04-01T17:47:58;11.50;99.90
17728;DHT22;8984;49.268;12.302;2023-04-01T17:50:50;11.50;99.90
17728;DHT22;8984;49.268;12.302;2023-04-01T17:53:47;11.50;99.90
17728;DHT22;8984;49.268;12.302;2023-04-01T17:56:32;11.30;99.90
17728;DHT22;8984;49.268;12.302;2023-04-01T17:59:19;11.20;99.90
17728;DHT22;8984;49.268;12.302;2023-04-01T18:02:00;11.20;99.90
17728;DHT22;8984;49.268;12.302;2023-04-01T18:08:01;11.20;99.90
17728;DHT22;8984;49.268;12.302;2023-04-01T18:10:53;11.20;99.90
17728;DHT22;8984;49.268;12.302;2023-04-01T18:16:46;11.20;99.90
17728;DHT22;8984;49.268;12.302;2023-04-01T18:19:26;11.30;99.90
17728;DHT22;8984;49.268;12.302;2023-04-01T18:22:15;11.10;99.90
17728;DHT22;8984;49.268;12.302;2023-04-01T18:24:49;11.20;99.90
17728;DHT22;8984;49.268;12.302;2023-04-01T18:27:36;11.10;99.90
17728;DHT22;8984;49.268;12.302;2023-04-01T18:30:20;11.10;99.90
17728;DHT22;8984;49.268;12.302;2023-04-01T18:33:16;11.10;99.90
17728;DHT22;8984;49.268;12.302;2023-04-01T18:35:52;11.10;99.90
17728;DHT22;8984;49.268;12.302;2023-04-01T18:38:57;11.10;99.90
17728;DHT22;8984;49.268;12.302;2023-04-01T18:41:34;11.00;99.90
17728;DHT22;8984;49.268;12.302;2023-04-01T18:44:34;11.10;99.90
17728;DHT22;8984;49.268;12.302;2023-04-01T18:47:29;10.80;99.90
17728;DHT22;8984;49.268;12.302;2023-04-01T18:50:22;11.00;99.90
17728;DHT22;8984;49.268;12.302;2023-04-01T18:52:56;11.00;99.90
17728;DHT22;8984;49.268;12.302;2023-04-01T18:55:34;11.20;99.90
17728;DHT22;8984;49.268;12.302;2023-04-01T18:58:29;11.00;99.90
17728;DHT22;8984;49.268;12.302;2023-04-01T19:01:22;11.10;99.90
17728;DHT22;8984;49.268;12.302;2023-04-01T19:04:03;11.10;99.90